sensor_id;sensor_type;location;lat;lon;timestamp;pressure;altitude;pressure_sealevel;temperature;humidity
68793;BME280;55778;54.346;10.210;2023-01-16T00:00:33;99111.69;;;3.94;100.00
68793;BME280;55778;54.346;10.210;2023-01-16T00:02:58;99117.22;;;3.92;100.00
68793;BME280;55778;54.346;10.210;2023-01-16T00:05:24;99110.69;;;3.95;100.00
68793;BME280;55778;54.346;10.210;2023-01-16T00:07:49;99105.13;;;3.96;100.00
68793;BME280;55778;54.346;10.210;2023-01-16T00:10:14;99113.09;;;3.98;100.00
68793;BME280;55778;54.346;10.210;2023-01-16T00:12:41;99099.47;;;4.09;100.00
68793;BME280;55778;54.346;10.210;2023-01-16T00:15:07;99098.03;;;4.05;100.00
68793;BME280;55778;54.346;10.210;2023-01-16T00:17:32;99097.88;;;4.06;100.00
68793;BME280;55778;54.346;10.210;2023-01-16T00:19:58;99100.72;;;4.05;100.00
68793;BME280;55778;54.346;10.210;2023-01-16T00:22:23;99105.66;;;4.09;100.00
68793;BME280;55778;54.346;10.210;2023-01-16T00:24:48;99112.06;;;4.08;100.00
68793;BME280;55778;54.346;10.210;2023-01-16T00:27:14;99102.97;;;4.09;100.00
68793;BME280;55778;54.346;10.210;2023-01-16T00:29:39;99116.19;;;4.03;100.00
68793;BME280;55778;54.346;10.210;2023-01-16T00:32:05;99112.34;;;4.15;100.00
68793;BME280;55778;54.346;10.210;2023-01-16T00:34:30;99106.53;;;4.10;100.00
68793;BME280;55778;54.346;10.210;2023-01-16T00:36:55;99107.41;;;4.10;100.00
68793;BME280;55778;54.346;10.210;2023-01-16T00:39:21;99102.00;;;4.10;100.00
68793;BME280;55778;54.346;10.210;2023-01-16T00:41:46;99102.00;;;4.10;100.00
68793;BME280;55778;54.346;10.210;2023-01-16T00:44:12;99109.66;;;4.15;100.00
68793;BME280;55778;54.346;10.210;2023-01-16T00:46:37;99113.31;;;4.14;100.00
68793;BME280;55778;54.346;10.210;2023-01-16T00:49:02;99117.31;;;4.10;100.00
68793;BME280;55778;54.346;10.210;2023-01-16T00:51:28;99128.66;;;4.13;100.00
68793;BME280;55778;54.346;10.210;2023-01-16T00:53:53;99113.06;;;4.07;100.00
68793;BME280;55778;54.346;10.210;2023-01-16T00:56:19;99113.78;;;4.00;100.00
68793;BME280;55778;54.346;10.210;2023-01-16T00:58:44;99123.72;;;3.99;100.00
68793;BME280;55778;54.346;10.210;2023-01-16T01:01:09;99124.00;;;3.96;100.00
68793;BME280;55778;54.346;10.210;2023-01-16T01:03:35;99148.25;;;3.96;100.00
68793;BME280;55778;54.346;10.210;2023-01-16T01:06:08;99134.09;;;3.94;100.00
68793;BME280;55778;54.346;10.210;2023-01-16T01:08:34;99127.56;;;3.97;100.00
68793;BME280;55778;54.346;10.210;2023-01-16T01:11:06;99126.84;;;3.95;100.00
68793;BME280;55778;54.346;10.210;2023-01-16T01:13:31;99131.41;;;3.94;100.00
68793;BME280;55778;54.346;10.210;2023-01-16T01:15:57;99138.47;;;3.95;100.00
68793;BME280;55778;54.346;10.210;2023-01-16T01:18:22;99134.78;;;3.96;100.00
68793;BME280;55778;54.346;10.210;2023-01-16T01:20:47;99120.06;;;3.91;100.00
68793;BME280;55778;54.346;10.210;2023-01-16T01:23:13;99117.66;;;3.97;100.00
68793;BME280;55778;54.346;10.210;2023-01-16T01:25:39;99126.69;;;3.96;100.00
68793;BME280;55778;54.346;10.210;2023-01-16T01:28:04;99119.75;;;3.94;100.00
68793;BME280;55778;54.346;10.210;2023-01-16T01:30:29;99117.94;;;3.94;100.00
68793;BME280;55778;54.346;10.210;2023-01-16T01:32:55;99121.75;;;3.92;100.00
68793;BME280;55778;54.346;10.210;2023-01-16T01:35:20;99113.81;;;3.90;100.00
68793;BME280;55778;54.346;10.210;2023-01-16T01:37:45;99113.53;;;3.84;100.00
68793;BME280;55778;54.346;10.210;2023-01-16T01:40:11;99117.66;;;3.88;100.00
68793;BME280;55778;54.346;10.210;2023-01-16T01:42:38;99118.22;;;3.82;100.00
68793;BME280;55778;54.346;10.210;2023-01-16T01:47:47;99109.84;;;3.85;100.00
68793;BME280;55778;54.346;10.210;2023-01-16T01:50:24;99106.28;;;3.84;100.00
68793;BME280;55778;54.346;10.210;2023-01-16T01:52:52;99099.34;;;3.82;100.00
68793;BME280;55778;54.346;10.210;2023-01-16T01:55:19;99103.19;;;3.79;100.00
68793;BME280;55778;54.346;10.210;2023-01-16T01:57:49;99087.91;;;3.70;100.00
68793;BME280;55778;54.346;10.210;2023-01-16T02:00:20;99105.75;;;3.81;100.00
68793;BME280;55778;54.346;10.210;2023-01-16T02:03:04;99113.84;;;3.81;100.00
68793;BME280;55778;54.346;10.210;2023-01-16T02:05:42;99099.34;;;3.82;100.00
68793;BME280;55778;54.346;10.210;2023-01-16T02:08:13;99103.88;;;3.81;100.00
68793;BME280;55778;54.346;10.210;2023-01-16T02:10:43;99095.94;;;3.80;100.00
68793;BME280;55778;54.346;10.210;2023-01-16T02:13:10;99091.84;;;3.85;100.00
68793;BME280;55778;54.346;10.210;2023-01-16T02:15:36;99096.09;;;3.88;100.00
68793;BME280;55778;54.346;10.210;2023-01-16T02:18:01;99092.97;;;3.92;100.00
68793;BME280;55778;54.346;10.210;2023-01-16T02:37:49;99066.16;;;3.91;100.00
68793;BME280;55778;54.346;10.210;2023-01-16T02:43:14;99067.28;;;3.98;100.00
68793;BME280;55778;54.346;10.210;2023-01-16T02:46:08;99063.91;;;3.96;100.00
68793;BME280;55778;54.346;10.210;2023-01-16T02:48:40;99059.03;;;3.99;100.00
68793;BME280;55778;54.346;10.210;2023-01-16T02:53:45;99050.41;;;3.96;100.00
68793;BME280;55778;54.346;10.210;2023-01-16T02:56:19;99050.13;;;3.99;100.00
68793;BME280;55778;54.346;10.210;2023-01-16T02:58:46;99052.09;;;3.97;100.00
68793;BME280;55778;54.346;10.210;2023-01-16T03:01:13;99049.13;;;4.00;100.00
68793;BME280;55778;54.346;10.210;2023-01-16T03:11:18;99044.44;;;4.02;100.00
68793;BME280;55778;54.346;10.210;2023-01-16T03:14:10;99041.63;;;3.94;100.00
68793;BME280;55778;54.346;10.210;2023-01-16T03:17:06;99038.34;;;3.90;100.00
68793;BME280;55778;54.346;10.210;2023-01-16T03:19:52;99048.56;;;3.96;100.00
68793;BME280;55778;54.346;10.210;2023-01-16T03:25:16;99032.53;;;3.95;100.00
68793;BME280;55778;54.346;10.210;2023-01-16T03:30:30;99018.66;;;3.90;100.00
68793;BME280;55778;54.346;10.210;2023-01-16T03:33:02;99013.97;;;3.92;100.00
68793;BME280;55778;54.346;10.210;2023-01-16T03:35:37;99014.81;;;3.92;100.00
68793;BME280;55778;54.346;10.210;2023-01-16T03:38:07;99021.94;;;3.84;100.00
68793;BME280;55778;54.346;10.210;2023-01-16T03:40:38;99011.84;;;3.86;100.00
68793;BME280;55778;54.346;10.210;2023-01-16T03:43:11;99015.41;;;3.86;100.00
68793;BME280;55778;54.346;10.210;2023-01-16T03:45:44;99017.97;;;3.88;100.00
68793;BME280;55778;54.346;10.210;2023-01-16T03:48:22;99023.63;;;3.85;100.00
68793;BME280;55778;54.346;10.210;2023-01-16T03:50:55;99015.25;;;3.88;100.00
68793;BME280;55778;54.346;10.210;2023-01-16T03:53:25;99008.56;;;3.92;100.00
68793;BME280;55778;54.346;10.210;2023-01-16T03:58:36;99004.19;;;3.91;100.00
68793;BME280;55778;54.346;10.210;2023-01-16T04:03:44;99004.63;;;3.96;100.00
68793;BME280;55778;54.346;10.210;2023-01-16T04:06:30;98994.81;;;3.95;100.00
68793;BME280;55778;54.346;10.210;2023-01-16T04:08:58;99003.31;;;4.00;100.00
68793;BME280;55778;54.346;10.210;2023-01-16T04:11:25;99005.16;;;3.99;100.00
68793;BME280;55778;54.346;10.210;2023-01-16T04:13:53;98995.22;;;4.00;100.00
68793;BME280;55778;54.346;10.210;2023-01-16T04:16:20;98982.69;;;4.08;100.00
68793;BME280;55778;54.346;10.210;2023-01-16T04:18:48;98985.97;;;4.12;100.00
68793;BME280;55778;54.346;10.210;2023-01-16T04:21:15;98981.25;;;4.14;100.00
68793;BME280;55778;54.346;10.210;2023-01-16T04:23:41;98980.72;;;4.10;100.00
68793;BME280;55778;54.346;10.210;2023-01-16T04:26:07;98980.13;;;4.17;100.00
68793;BME280;55778;54.346;10.210;2023-01-16T04:28:33;98987.22;;;4.08;100.00
68793;BME280;55778;54.346;10.210;2023-01-16T04:30:58;98990.34;;;4.13;100.00
68793;BME280;55778;54.346;10.210;2023-01-16T04:33:23;98982.97;;;4.15;100.00
68793;BME280;55778;54.346;10.210;2023-01-16T04:35:49;98991.72;;;4.17;100.00
68793;BME280;55778;54.346;10.210;2023-01-16T04:38:14;98982.97;;;4.15;100.00
68793;BME280;55778;54.346;10.210;2023-01-16T04:40:40;98976.28;;;4.19;100.00
68793;BME280;55778;54.346;10.210;2023-01-16T04:43:05;98965.63;;;4.18;100.00
68793;BME280;55778;54.346;10.210;2023-01-16T04:45:30;98959.16;;;4.10;100.00
68793;BME280;55778;54.346;10.210;2023-01-16T04:47:56;98958.75;;;4.05;100.00
68793;BME280;55778;54.346;10.210;2023-01-16T04:50:21;98956.34;;;4.02;100.00
68793;BME280;55778;54.346;10.210;2023-01-16T04:52:47;98953.91;;;4.09;100.00
68793;BME280;55778;54.346;10.210;2023-01-16T04:55:13;98963.38;;;4.13;100.00
68793;BME280;55778;54.346;10.210;2023-01-16T04:57:38;98957.28;;;4.11;100.00
68793;BME280;55778;54.346;10.210;2023-01-16T05:00:06;98952.59;;;4.13;100.00
68793;BME280;55778;54.346;10.210;2023-01-16T05:02:32;98951.50;;;4.06;100.00
68793;BME280;55778;54.346;10.210;2023-01-16T05:04:58;98935.34;;;4.06;100.00
68793;BME280;55778;54.346;10.210;2023-01-16T05:07:23;98934.19;;;4.08;100.00
68793;BME280;55778;54.346;10.210;2023-01-16T05:09:52;98939.72;;;4.07;100.00
68793;BME280;55778;54.346;10.210;2023-01-16T05:12:18;98929.53;;;4.01;100.00
68793;BME280;55778;54.346;10.210;2023-01-16T05:14:43;98932.31;;;3.91;100.00
68793;BME280;55778;54.346;10.210;2023-01-16T05:17:08;98927.81;;;3.82;100.00
68793;BME280;55778;54.346;10.210;2023-01-16T05:19:34;98921.44;;;3.74;100.00
68793;BME280;55778;54.346;10.210;2023-01-16T05:21:59;98922.03;;;3.68;100.00
68793;BME280;55778;54.346;10.210;2023-01-16T05:24:24;98921.34;;;3.66;100.00
68793;BME280;55778;54.346;10.210;2023-01-16T05:26:50;98920.25;;;3.59;100.00
68793;BME280;55778;54.346;10.210;2023-01-16T05:29:15;98917.28;;;3.52;100.00
68793;BME280;55778;54.346;10.210;2023-01-16T05:31:41;98923.81;;;3.50;100.00
68793;BME280;55778;54.346;10.210;2023-01-16T05:34:08;98927.09;;;3.44;100.00
68793;BME280;55778;54.346;10.210;2023-01-16T05:36:33;98915.47;;;3.43;100.00
68793;BME280;55778;54.346;10.210;2023-01-16T05:38:59;98929.22;;;3.40;100.00
68793;BME280;55778;54.346;10.210;2023-01-16T05:41:24;98923.13;;;3.38;100.00
68793;BME280;55778;54.346;10.210;2023-01-16T05:43:49;98918.63;;;3.29;100.00
68793;BME280;55778;54.346;10.210;2023-01-16T05:46:15;98925.28;;;3.35;100.00
68793;BME280;55778;54.346;10.210;2023-01-16T05:48:40;98920.19;;;3.32;100.00
68793;BME280;55778;54.346;10.210;2023-01-16T05:51:06;98919.16;;;3.33;100.00
68793;BME280;55778;54.346;10.210;2023-01-16T05:53:31;98912.94;;;3.32;100.00
68793;BME280;55778;54.346;10.210;2023-01-16T05:55:57;98911.97;;;3.33;100.00
68793;BME280;55778;54.346;10.210;2023-01-16T05:58:23;98911.63;;;3.46;100.00
68793;BME280;55778;54.346;10.210;2023-01-16T06:00:49;98912.19;;;3.49;100.00
68793;BME280;55778;54.346;10.210;2023-01-16T06:03:15;98901.13;;;3.52;100.00
68793;BME280;55778;54.346;10.210;2023-01-16T06:05:43;98897.88;;;3.49;100.00
68793;BME280;55778;54.346;10.210;2023-01-16T06:08:09;98893.03;;;3.52;100.00
68793;BME280;55778;54.346;10.210;2023-01-16T06:10:34;98894.84;;;3.61;100.00
68793;BME280;55778;54.346;10.210;2023-01-16T06:13:01;98897.41;;;3.63;100.00
68793;BME280;55778;54.346;10.210;2023-01-16T06:15:27;98889.63;;;3.60;100.00
68793;BME280;55778;54.346;10.210;2023-01-16T06:17:52;98887.38;;;3.55;100.00
68793;BME280;55778;54.346;10.210;2023-01-16T06:20:19;98884.81;;;3.54;100.00
68793;BME280;55778;54.346;10.210;2023-01-16T06:22:44;98878.88;;;3.50;100.00
68793;BME280;55778;54.346;10.210;2023-01-16T06:25:10;98880.59;;;3.51;100.00
68793;BME280;55778;54.346;10.210;2023-01-16T06:27:36;98878.28;;;3.56;100.00
68793;BME280;55778;54.346;10.210;2023-01-16T06:30:01;98879.84;;;3.59;100.00
68793;BME280;55778;54.346;10.210;2023-01-16T06:32:27;98880.09;;;3.65;100.00
68793;BME280;55778;54.346;10.210;2023-01-16T06:34:52;98871.31;;;3.63;100.00
68793;BME280;55778;54.346;10.210;2023-01-16T06:37:17;98876.16;;;3.60;100.00
68793;BME280;55778;54.346;10.210;2023-01-16T06:39:43;98870.19;;;3.66;100.00
68793;BME280;55778;54.346;10.210;2023-01-16T06:42:08;98870.63;;;3.61;100.00
68793;BME280;55778;54.346;10.210;2023-01-16T06:44:34;98865.66;;;3.66;100.00
68793;BME280;55778;54.346;10.210;2023-01-16T06:47:00;98858.69;;;3.64;100.00
68793;BME280;55778;54.346;10.210;2023-01-16T06:49:26;98848.78;;;3.64;100.00
68793;BME280;55778;54.346;10.210;2023-01-16T06:51:52;98855.03;;;3.65;100.00
68793;BME280;55778;54.346;10.210;2023-01-16T06:54:17;98848.63;;;3.66;100.00
68793;BME280;55778;54.346;10.210;2023-01-16T06:56:43;98846.09;;;3.64;100.00
68793;BME280;55778;54.346;10.210;2023-01-16T06:59:08;98845.63;;;3.69;100.00
68793;BME280;55778;54.346;10.210;2023-01-16T07:01:34;98839.81;;;3.73;100.00
68793;BME280;55778;54.346;10.210;2023-01-16T07:03:59;98847.63;;;3.67;100.00
68793;BME280;55778;54.346;10.210;2023-01-16T07:06:25;98842.94;;;3.69;100.00
68793;BME280;55778;54.346;10.210;2023-01-16T07:08:50;98839.66;;;3.75;100.00
68793;BME280;55778;54.346;10.210;2023-01-16T07:11:17;98841.19;;;3.77;100.00
68793;BME280;55778;54.346;10.210;2023-01-16T07:13:42;98843.03;;;3.77;100.00
68793;BME280;55778;54.346;10.210;2023-01-16T07:16:13;98842.19;;;3.76;100.00
68793;BME280;55778;54.346;10.210;2023-01-16T07:18:57;98841.50;;;3.74;100.00
68793;BME280;55778;54.346;10.210;2023-01-16T07:21:43;98849.28;;;3.77;100.00
68793;BME280;55778;54.346;10.210;2023-01-16T07:24:32;98839.34;;;3.78;100.00
68793;BME280;55778;54.346;10.210;2023-01-16T07:27:00;98843.59;;;3.80;100.00
68793;BME280;55778;54.346;10.210;2023-01-16T07:29:29;98834.34;;;3.83;100.00
68793;BME280;55778;54.346;10.210;2023-01-16T07:31:57;98838.75;;;3.84;100.00
68793;BME280;55778;54.346;10.210;2023-01-16T07:34:23;98840.75;;;3.82;100.00
68793;BME280;55778;54.346;10.210;2023-01-16T07:36:48;98830.41;;;3.77;100.00
68793;BME280;55778;54.346;10.210;2023-01-16T07:39:14;98825.97;;;3.86;100.00
68793;BME280;55778;54.346;10.210;2023-01-16T07:41:39;98821.19;;;3.80;100.00
68793;BME280;55778;54.346;10.210;2023-01-16T07:44:05;98824.13;;;3.86;100.00
68793;BME280;55778;54.346;10.210;2023-01-16T07:46:31;98825.66;;;3.89;100.00
68793;BME280;55778;54.346;10.210;2023-01-16T07:48:57;98824.13;;;3.86;100.00
68793;BME280;55778;54.346;10.210;2023-01-16T07:51:22;98809.34;;;3.90;100.00
68793;BME280;55778;54.346;10.210;2023-01-16T07:53:48;98813.75;;;3.91;100.00
68793;BME280;55778;54.346;10.210;2023-01-16T07:56:13;98811.22;;;3.90;100.00
68793;BME280;55778;54.346;10.210;2023-01-16T07:58:39;98816.75;;;3.88;100.00
68793;BME280;55778;54.346;10.210;2023-01-16T08:01:06;98800.03;;;3.85;100.00
68793;BME280;55778;54.346;10.210;2023-01-16T08:03:32;98793.03;;;3.92;100.00
68793;BME280;55778;54.346;10.210;2023-01-16T08:05:57;98785.66;;;3.94;100.00
68793;BME280;55778;54.346;10.210;2023-01-16T08:08:23;98782.50;;;3.98;100.00
68793;BME280;55778;54.346;10.210;2023-01-16T08:10:55;98788.75;;;3.99;100.00
68793;BME280;55778;54.346;10.210;2023-01-16T08:13:20;98787.44;;;4.03;100.00
68793;BME280;55778;54.346;10.210;2023-01-16T08:15:46;98785.03;;;4.00;100.00
68793;BME280;55778;54.346;10.210;2023-01-16T08:18:11;98777.66;;;4.02;100.00
68793;BME280;55778;54.346;10.210;2023-01-16T08:20:38;98776.88;;;4.09;100.00
68793;BME280;55778;54.346;10.210;2023-01-16T08:23:03;98774.31;;;4.08;100.00
68793;BME280;55778;54.346;10.210;2023-01-16T08:25:29;98775.44;;;4.15;100.00
68793;BME280;55778;54.346;10.210;2023-01-16T08:27:54;98774.03;;;4.11;100.00
68793;BME280;55778;54.346;10.210;2023-01-16T08:30:20;98775.03;;;4.10;100.00
68793;BME280;55778;54.346;10.210;2023-01-16T08:32:46;98772.50;;;4.08;100.00
68793;BME280;55778;54.346;10.210;2023-01-16T08:35:11;98772.63;;;4.07;100.00
68793;BME280;55778;54.346;10.210;2023-01-16T08:37:36;98766.94;;;4.10;100.00
68793;BME280;55778;54.346;10.210;2023-01-16T08:40:02;98760.34;;;4.04;100.00
68793;BME280;55778;54.346;10.210;2023-01-16T08:42:29;98756.56;;;3.97;100.00
68793;BME280;55778;54.346;10.210;2023-01-16T08:45:14;98746.25;;;3.93;100.00
68793;BME280;55778;54.346;10.210;2023-01-16T08:47:59;98740.91;;;3.83;100.00
68793;BME280;55778;54.346;10.210;2023-01-16T08:50:44;98740.47;;;3.88;100.00
68793;BME280;55778;54.346;10.210;2023-01-16T08:53:30;98737.22;;;3.84;100.00
68793;BME280;55778;54.346;10.210;2023-01-16T08:55:55;98734.06;;;3.89;100.00
68793;BME280;55778;54.346;10.210;2023-01-16T08:58:20;98723.84;;;3.92;100.00
68793;BME280;55778;54.346;10.210;2023-01-16T09:00:47;98721.06;;;4.02;100.00
68793;BME280;55778;54.346;10.210;2023-01-16T09:03:12;98727.03;;;4.31;99.41
68793;BME280;55778;54.346;10.210;2023-01-16T09:05:38;98721.22;;;4.61;97.08
68793;BME280;55778;54.346;10.210;2023-01-16T09:08:04;98710.84;;;4.74;96.57
68793;BME280;55778;54.346;10.210;2023-01-16T09:10:29;98720.53;;;4.85;95.69
68793;BME280;55778;54.346;10.210;2023-01-16T09:12:56;98714.00;;;4.95;95.56
68793;BME280;55778;54.346;10.210;2023-01-16T09:15:40;98715.69;;;4.96;94.75
68793;BME280;55778;54.346;10.210;2023-01-16T09:18:05;98704.91;;;4.96;94.54
68793;BME280;55778;54.346;10.210;2023-01-16T09:20:31;98694.66;;;5.08;93.03
68793;BME280;55778;54.346;10.210;2023-01-16T09:22:57;98703.59;;;5.08;92.75
68793;BME280;55778;54.346;10.210;2023-01-16T09:25:23;98711.94;;;4.89;93.98
68793;BME280;55778;54.346;10.210;2023-01-16T09:27:49;98705.63;;;4.81;94.51
68793;BME280;55778;54.346;10.210;2023-01-16T09:30:14;98709.81;;;4.75;94.95
68793;BME280;55778;54.346;10.210;2023-01-16T09:32:40;98707.84;;;4.85;94.34
68793;BME280;55778;54.346;10.210;2023-01-16T09:35:05;98695.22;;;4.86;94.31
68793;BME280;55778;54.346;10.210;2023-01-16T09:37:31;98690.84;;;4.85;93.83
68793;BME280;55778;54.346;10.210;2023-01-16T09:39:56;98694.13;;;4.71;94.47
68793;BME280;55778;54.346;10.210;2023-01-16T09:45:26;98693.63;;;4.50;96.11
68793;BME280;55778;54.346;10.210;2023-01-16T09:47:57;98673.94;;;4.49;95.42
68793;BME280;55778;54.346;10.210;2023-01-16T09:50:30;98682.91;;;4.58;95.30
68793;BME280;55778;54.346;10.210;2023-01-16T09:52:59;98672.59;;;4.53;95.43
68793;BME280;55778;54.346;10.210;2023-01-16T09:55:47;98673.47;;;4.54;95.21
68793;BME280;55778;54.346;10.210;2023-01-16T09:58:32;98661.50;;;4.56;95.53
68793;BME280;55778;54.346;10.210;2023-01-16T10:01:13;98648.53;;;4.60;95.48
68793;BME280;55778;54.346;10.210;2023-01-16T10:03:40;98656.81;;;4.66;95.70
68793;BME280;55778;54.346;10.210;2023-01-16T10:11:48;98635.41;;;4.98;92.98
68793;BME280;55778;54.346;10.210;2023-01-16T10:17:35;98623.38;;;4.85;93.60
68793;BME280;55778;54.346;10.210;2023-01-16T10:25:19;98604.75;;;5.07;92.86
68793;BME280;55778;54.346;10.210;2023-01-16T10:31:00;98582.69;;;5.36;90.44
68793;BME280;55778;54.346;10.210;2023-01-16T10:36:09;98582.06;;;5.50;89.44
68793;BME280;55778;54.346;10.210;2023-01-16T10:38:45;98571.91;;;5.52;89.00
68793;BME280;55778;54.346;10.210;2023-01-16T10:41:32;98569.91;;;5.54;89.04
68793;BME280;55778;54.346;10.210;2023-01-16T10:44:37;98565.19;;;5.56;88.75
68793;BME280;55778;54.346;10.210;2023-01-16T10:47:33;98562.47;;;5.64;88.87
68793;BME280;55778;54.346;10.210;2023-01-16T10:50:20;98560.09;;;5.61;88.13
68793;BME280;55778;54.346;10.210;2023-01-16T10:52:48;98560.63;;;5.48;88.38
68793;BME280;55778;54.346;10.210;2023-01-16T10:55:15;98564.00;;;5.58;88.60
68793;BME280;55778;54.346;10.210;2023-01-16T10:57:49;98560.63;;;5.48;88.90
68793;BME280;55778;54.346;10.210;2023-01-16T11:00:34;98557.91;;;5.40;89.57
68793;BME280;55778;54.346;10.210;2023-01-16T11:03:08;98563.94;;;5.18;89.47
68793;BME280;55778;54.346;10.210;2023-01-16T11:05:37;98551.47;;;5.17;90.02
68793;BME280;55778;54.346;10.210;2023-01-16T11:08:18;98541.81;;;5.15;90.01
68793;BME280;55778;54.346;10.210;2023-01-16T11:10:46;98535.91;;;5.11;90.11
68793;BME280;55778;54.346;10.210;2023-01-16T11:13:19;98534.72;;;4.98;89.93
68793;BME280;55778;54.346;10.210;2023-01-16T11:16:18;98528.94;;;4.93;90.60
68793;BME280;55778;54.346;10.210;2023-01-16T11:19:24;98521.53;;;4.95;90.66
68793;BME280;55778;54.346;10.210;2023-01-16T11:22:00;98514.78;;;4.99;90.95
68793;BME280;55778;54.346;10.210;2023-01-16T11:24:34;98510.44;;;5.06;90.72
68793;BME280;55778;54.346;10.210;2023-01-16T11:27:01;98499.47;;;5.07;90.70
68793;BME280;55778;54.346;10.210;2023-01-16T11:29:35;98487.50;;;5.10;90.29
68793;BME280;55778;54.346;10.210;2023-01-16T11:32:05;98482.59;;;5.05;91.05
68793;BME280;55778;54.346;10.210;2023-01-16T11:34:31;98484.28;;;5.06;91.20
68793;BME280;55778;54.346;10.210;2023-01-16T11:37:00;98477.53;;;5.18;91.35
68793;BME280;55778;54.346;10.210;2023-01-16T11:39:29;98471.97;;;5.20;91.11
68793;BME280;55778;54.346;10.210;2023-01-16T11:41:58;98466.59;;;5.12;91.34
68793;BME280;55778;54.346;10.210;2023-01-16T11:44:27;98449.34;;;5.21;91.01
68793;BME280;55778;54.346;10.210;2023-01-16T11:47:16;98437.75;;;5.20;90.48
68793;BME280;55778;54.346;10.210;2023-01-16T11:49:47;98433.19;;;5.13;90.71
68793;BME280;55778;54.346;10.210;2023-01-16T11:52:16;98426.59;;;5.07;91.13
68793;BME280;55778;54.346;10.210;2023-01-16T11:54:53;98418.34;;;5.09;91.58
68793;BME280;55778;54.346;10.210;2023-01-16T12:00:18;98416.16;;;5.04;91.15
68793;BME280;55778;54.346;10.210;2023-01-16T12:02:55;98400.28;;;4.93;92.26
68793;BME280;55778;54.346;10.210;2023-01-16T12:05:37;98392.19;;;4.93;92.41
68793;BME280;55778;54.346;10.210;2023-01-16T12:33:16;98308.75;;;5.46;89.54
68793;BME280;55778;54.346;10.210;2023-01-16T12:35:58;98295.72;;;5.58;88.73
68793;BME280;55778;54.346;10.210;2023-01-16T12:38:34;98295.84;;;5.72;88.88
68793;BME280;55778;54.346;10.210;2023-01-16T12:41:22;98274.34;;;5.87;87.33
68793;BME280;55778;54.346;10.210;2023-01-16T12:44:42;98260.66;;;5.88;86.82
68793;BME280;55778;54.346;10.210;2023-01-16T12:56:16;98227.97;;;5.98;85.39
68793;BME280;55778;54.346;10.210;2023-01-16T12:58:50;98226.06;;;5.84;86.38
68793;BME280;55778;54.346;10.210;2023-01-16T13:01:24;98222.50;;;5.83;86.64
68793;BME280;55778;54.346;10.210;2023-01-16T13:06:48;98202.00;;;5.58;87.97
68793;BME280;55778;54.346;10.210;2023-01-16T13:09:22;98195.91;;;5.64;87.97
68793;BME280;55778;54.346;10.210;2023-01-16T13:11:59;98201.50;;;5.55;87.87
68793;BME280;55778;54.346;10.210;2023-01-16T13:14:50;98199.22;;;5.44;87.59
68793;BME280;55778;54.346;10.210;2023-01-16T13:17:25;98193.84;;;5.36;88.20
68793;BME280;55778;54.346;10.210;2023-01-16T13:19:53;98190.84;;;5.31;88.90
68793;BME280;55778;54.346;10.210;2023-01-16T13:22:22;98188.53;;;5.20;88.74
68793;BME280;55778;54.346;10.210;2023-01-16T13:24:57;98181.63;;;5.17;88.57
68793;BME280;55778;54.346;10.210;2023-01-16T13:27:36;98179.09;;;5.16;88.94
68793;BME280;55778;54.346;10.210;2023-01-16T13:30:08;98177.22;;;5.16;88.70
68793;BME280;55778;54.346;10.210;2023-01-16T13:32:52;98173.06;;;5.06;89.43
68793;BME280;55778;54.346;10.210;2023-01-16T13:35:24;98161.94;;;5.09;88.94
68793;BME280;55778;54.346;10.210;2023-01-16T13:40:48;98152.19;;;5.00;89.70
68793;BME280;55778;54.346;10.210;2023-01-16T13:43:20;98154.38;;;4.96;89.64
68793;BME280;55778;54.346;10.210;2023-01-16T13:46:06;98135.84;;;4.93;89.65
68793;BME280;55778;54.346;10.210;2023-01-16T13:48:34;98142.72;;;4.96;89.66
68793;BME280;55778;54.346;10.210;2023-01-16T13:51:22;98141.91;;;4.95;89.74
68793;BME280;55778;54.346;10.210;2023-01-16T13:54:42;98138.53;;;4.93;90.26
68793;BME280;55778;54.346;10.210;2023-01-16T13:57:14;98134.16;;;4.92;90.70
68793;BME280;55778;54.346;10.210;2023-01-16T13:59:42;98130.63;;;4.92;90.61
68793;BME280;55778;54.346;10.210;2023-01-16T14:15:54;98105.47;;;4.91;90.76
68793;BME280;55778;54.346;10.210;2023-01-16T14:18:57;98099.63;;;4.88;90.07
68793;BME280;55778;54.346;10.210;2023-01-16T14:24:05;98085.78;;;4.83;89.77
68793;BME280;55778;54.346;10.210;2023-01-16T14:26:57;98087.16;;;4.79;90.38
68793;BME280;55778;54.346;10.210;2023-01-16T14:29:29;98077.19;;;4.79;90.35
68793;BME280;55778;54.346;10.210;2023-01-16T14:32:04;98074.03;;;4.76;90.25
68793;BME280;55778;54.346;10.210;2023-01-16T14:34:36;98079.06;;;4.79;90.60
68793;BME280;55778;54.346;10.210;2023-01-16T14:45:32;98057.84;;;4.76;90.77
68793;BME280;55778;54.346;10.210;2023-01-16T14:56:37;98054.47;;;4.74;90.07
68793;BME280;55778;54.346;10.210;2023-01-16T14:59:14;98058.53;;;4.70;90.23
68793;BME280;55778;54.346;10.210;2023-01-16T15:01:47;98052.28;;;4.69;90.04
68793;BME280;55778;54.346;10.210;2023-01-16T15:04:40;98044.56;;;4.66;89.96
68793;BME280;55778;54.346;10.210;2023-01-16T15:07:11;98048.28;;;4.65;90.43
68793;BME280;55778;54.346;10.210;2023-01-16T15:09:39;98040.38;;;4.64;90.43
68793;BME280;55778;54.346;10.210;2023-01-16T15:12:12;98042.56;;;4.60;90.64
68793;BME280;55778;54.346;10.210;2023-01-16T15:14:38;98045.75;;;4.64;89.59
68793;BME280;55778;54.346;10.210;2023-01-16T15:17:11;98041.75;;;4.60;90.22
68793;BME280;55778;54.346;10.210;2023-01-16T15:22:45;98037.22;;;4.52;90.84
68793;BME280;55778;54.346;10.210;2023-01-16T15:31:05;98009.75;;;4.41;91.93
68793;BME280;55778;54.346;10.210;2023-01-16T15:33:32;98012.00;;;4.37;91.81
68793;BME280;55778;54.346;10.210;2023-01-16T15:38:44;98001.69;;;4.41;91.02
68793;BME280;55778;54.346;10.210;2023-01-16T15:41:11;98003.06;;;4.37;92.35
68793;BME280;55778;54.346;10.210;2023-01-16T15:43:38;97997.66;;;4.37;91.65